Time;durP1;ratioP1;P1;durP2;ratioP2;P2;SDS_P1;SDS_P2;PMS_P1;PMS_P2;Temp;Humidity;BMP_temperature;BMP_pressure;BME280_temperature;BME280_humidity;BME280_pressure;Samples;Min_cycle;Max_cycle;Signal;HPM_P1;HPM_P2
2022/02/24 00:01:48;;;;;;;6.07;2.27;;;9.60;1.00;;;;;;5094442;28;20615;-74
2022/02/24 00:04:15;;;;;;;5.67;1.77;;;9.60;1.00;;;;;;5094031;28;20262;-74
2022/02/24 00:06:42;;;;;;;3.43;1.57;;;9.60;1.00;;;;;;5094097;28;20641;-73
2022/02/24 00:09:09;;;;;;;4.07;1.57;;;9.70;1.00;;;;;;5094190;28;20202;-74
2022/02/24 00:11:36;;;;;;;2.93;1.53;;;9.60;1.00;;;;;;5094102;28;20197;-73
2022/02/24 00:14:03;;;;;;;3.50;1.47;;;9.60;1.00;;;;;;5093748;28;20229;-75
2022/02/24 00:16:31;;;;;;;2.70;1.00;;;9.60;1.00;;;;;;5093977;28;20202;-75
2022/02/24 00:18:58;;;;;;;3.17;1.23;;;9.60;1.00;;;;;;5093403;28;20326;-74
2022/02/24 00:21:26;;;;;;;4.77;1.87;;;9.60;1.00;;;;;;5094218;28;20201;-75
2022/02/24 00:23:53;;;;;;;3.53;1.60;;;9.50;1.00;;;;;;5094111;28;20591;-74
2022/02/24 00:26:20;;;;;;;3.93;1.87;;;9.50;1.00;;;;;;5094380;28;20274;-74
2022/02/24 00:28:47;;;;;;;1.40;1.00;;;9.50;1.00;;;;;;5093907;28;20266;-74
2022/02/24 00:31:13;;;;;;;2.30;1.47;;;9.50;1.00;;;;;;5093141;28;20259;-75
2022/02/24 00:33:42;;;;;;;2.93;1.40;;;9.60;1.00;;;;;;5093633;28;20229;-75
2022/02/24 00:36:09;;;;;;;1.50;1.40;;;9.50;1.00;;;;;;5093541;28;20202;-74
2022/02/24 00:38:36;;;;;;;2.47;1.00;;;9.50;1.00;;;;;;5093937;28;20262;-74
2022/02/24 00:41:03;;;;;;;1.30;1.20;;;9.50;1.00;;;;;;5093206;28;20209;-74
2022/02/24 00:43:30;;;;;;;2.63;1.07;;;9.50;1.00;;;;;;5093302;28;20217;-74
2022/02/24 00:45:57;;;;;;;2.83;1.00;;;9.40;1.00;;;;;;5093136;28;20202;-75
2022/02/24 00:48:24;;;;;;;2.50;1.30;;;9.40;1.00;;;;;;5093485;28;20254;-75
2022/02/24 00:50:52;;;;;;;2.07;1.23;;;9.40;1.00;;;;;;5093967;28;20251;-75
2022/02/24 00:53:19;;;;;;;1.60;1.00;;;9.50;1.00;;;;;;5093524;28;20217;-75
2022/02/24 00:55:46;;;;;;;1.10;1.00;;;9.40;1.00;;;;;;5093716;28;20251;-76
2022/02/24 00:58:14;;;;;;;0.70;0.60;;;9.50;1.00;;;;;;5091887;28;20213;-76
2022/02/24 01:00:41;;;;;;;1.10;1.00;;;9.40;1.00;;;;;;5093234;28;20205;-75
2022/02/24 01:03:08;;;;;;;2.57;1.13;;;9.30;1.00;;;;;;5092956;28;20250;-76
2022/02/24 01:05:35;;;;;;;2.67;0.90;;;9.30;1.00;;;;;;5093279;28;20562;-74
2022/02/24 01:08:04;;;;;;;1.27;0.90;;;9.40;1.00;;;;;;5092781;28;20251;-76
2022/02/24 01:10:31;;;;;;;6.73;1.63;;;9.40;1.00;;;;;;5093040;28;20206;-75
2022/02/24 01:12:58;;;;;;;3.30;1.07;;;9.50;1.00;;;;;;5092466;28;20236;-76
2022/02/24 01:15:25;;;;;;;1.20;0.70;;;9.50;1.00;;;;;;5093342;28;20233;-76
2022/02/24 01:17:52;;;;;;;3.07;1.13;;;9.50;1.00;;;;;;5093081;28;20251;-74
2022/02/24 01:20:19;;;;;;;2.67;0.93;;;9.50;1.00;;;;;;5093284;28;20210;-75
2022/02/24 01:22:47;;;;;;;2.53;0.80;;;9.50;1.00;;;;;;5092890;28;20660;-75
2022/02/24 01:25:18;;;;;;;2.30;1.10;;;9.50;1.00;;;;;;5092315;28;20731;-76
2022/02/24 01:27:46;;;;;;;3.50;1.37;;;9.50;1.00;;;;;;5092512;28;20259;-76
2022/02/24 01:30:13;;;;;;;1.47;1.03;;;9.50;1.00;;;;;;5092480;28;20202;-76
2022/02/24 01:32:41;;;;;;;2.53;1.23;;;9.60;1.00;;;;;;5092804;28;20261;-75
2022/02/24 01:35:09;;;;;;;2.03;1.03;;;9.60;1.00;;;;;;5092224;28;20285;-75
2022/02/24 01:37:36;;;;;;;2.33;1.17;;;9.70;1.00;;;;;;5092621;28;20202;-75
2022/02/24 01:40:03;;;;;;;1.67;1.00;;;9.70;1.00;;;;;;5089139;28;20584;-75
2022/02/24 01:42:31;;;;;;;7.47;1.80;;;9.70;1.00;;;;;;5071821;28;20613;-75
2022/02/24 01:44:59;;;;;;;2.23;1.53;;;9.60;1.00;;;;;;5072045;28;20198;-74
2022/02/24 01:47:26;;;;;;;2.53;1.47;;;9.50;1.00;;;;;;5072433;28;20264;-74
2022/02/24 01:49:53;;;;;;;4.33;1.57;;;9.60;1.00;;;;;;5072224;28;20255;-73
2022/02/24 01:52:21;;;;;;;3.73;0.97;;;9.70;1.00;;;;;;5072464;28;20206;-74
2022/02/24 01:54:49;;;;;;;4.43;1.33;;;9.50;1.00;;;;;;5071790;28;20233;-74
2022/02/24 01:57:17;;;;;;;3.43;1.40;;;9.60;1.00;;;;;;5071338;28;20206;-74
2022/02/24 01:59:46;;;;;;;8.70;1.97;;;9.70;1.00;;;;;;5071857;28;20232;-74
2022/02/24 02:02:14;;;;;;;6.93;1.90;;;9.60;1.00;;;;;;5071440;28;20213;-74
2022/02/24 02:04:42;;;;;;;6.00;2.80;;;9.70;1.00;;;;;;5071706;28;20206;-74
2022/02/24 02:07:10;;;;;;;4.47;1.87;;;9.60;1.00;;;;;;5071036;28;20618;-74
2022/02/24 02:09:38;;;;;;;8.13;2.53;;;9.60;1.00;;;;;;5071546;28;20202;-74
2022/02/24 02:12:06;;;;;;;10.13;2.63;;;9.60;1.00;;;;;;5071068;28;20206;-74
2022/02/24 02:14:34;;;;;;;8.40;2.00;;;9.60;1.00;;;;;;5071628;28;20328;-73
2022/02/24 02:17:02;;;;;;;7.87;2.47;;;9.60;1.00;;;;;;5071140;28;20206;-75
2022/02/24 02:19:29;;;;;;;7.20;3.33;;;9.50;1.00;;;;;;5071393;28;20205;-74
2022/02/24 02:21:58;;;;;;;9.93;2.80;;;9.50;1.00;;;;;;5070981;28;20251;-74
2022/02/24 02:24:25;;;;;;;7.53;2.73;;;9.50;1.00;;;;;;5071563;28;20210;-74
2022/02/24 02:26:52;;;;;;;7.87;2.53;;;9.40;1.00;;;;;;5071530;28;20210;-75
2022/02/24 02:29:19;;;;;;;6.47;2.57;;;9.40;1.00;;;;;;5071425;28;20202;-74
2022/02/24 02:31:46;;;;;;;12.33;3.67;;;9.50;1.00;;;;;;5071351;28;20206;-74
2022/02/24 02:34:17;;;;;;;11.90;3.27;;;9.40;1.00;;;;;;5070751;28;20230;-75
2022/02/24 02:36:46;;;;;;;9.83;2.87;;;9.40;1.00;;;;;;5071466;28;20206;-74
2022/02/24 02:39:16;;;;;;;11.40;5.03;;;9.30;1.00;;;;;;5071054;28;20263;-74
2022/02/24 02:41:45;;;;;;;14.43;4.20;;;9.40;1.00;;;;;;5071013;28;20590;-73
2022/02/24 02:44:14;;;;;;;17.80;3.20;;;9.40;1.00;;;;;;5070953;28;20210;-75
2022/02/24 02:46:41;;;;;;;11.47;4.10;;;9.30;1.00;;;;;;5071108;28;20205;-74
2022/02/24 02:49:08;;;;;;;13.77;3.80;;;9.30;1.00;;;;;;5070518;28;20203;-75
2022/02/24 02:51:35;;;;;;;9.20;3.93;;;9.30;1.00;;;;;;5071256;28;20551;-75
2022/02/24 02:54:02;;;;;;;14.73;5.70;;;9.30;1.00;;;;;;5070112;28;20217;-75
2022/02/24 02:56:31;;;;;;;15.07;4.40;;;9.40;1.00;;;;;;5071155;28;20271;-75
2022/02/24 02:58:58;;;;;;;23.00;5.50;;;9.40;1.00;;;;;;5070479;28;20206;-75
2022/02/24 03:01:25;;;;;;;19.83;4.30;;;9.40;1.00;;;;;;5070781;28;20206;-74
2022/02/24 03:03:52;;;;;;;14.10;4.07;;;9.40;1.00;;;;;;5071141;28;20627;-76
2022/02/24 03:06:19;;;;;;;11.97;4.37;;;9.50;1.00;;;;;;5071087;28;20213;-76
2022/02/24 03:08:46;;;;;;;14.33;4.13;;;9.40;1.00;;;;;;5070824;28;20255;-75
2022/02/24 03:11:13;;;;;;;13.63;3.53;;;9.50;1.00;;;;;;5070553;28;20198;-72
2022/02/24 03:13:41;;;;;;;13.60;4.20;;;9.60;1.00;;;;;;5070787;28;20255;-74
2022/02/24 03:16:08;;;;;;;14.60;3.40;;;9.50;1.00;;;;;;5070189;28;20762;-73
2022/02/24 03:18:35;;;;;;;14.50;5.00;;;9.50;1.00;;;;;;5070816;28;20198;-73
2022/02/24 03:21:02;;;;;;;15.93;3.93;;;9.50;1.00;;;;;;5070041;28;20252;-73
2022/02/24 03:23:29;;;;;;;12.97;6.07;;;9.40;1.00;;;;;;5070402;28;20198;-74
2022/02/24 03:25:56;;;;;;;11.27;4.60;;;9.60;1.00;;;;;;5070259;28;20210;-74
2022/02/24 03:28:23;;;;;;;16.87;4.00;;;9.60;1.00;;;;;;5070598;28;20202;-72
2022/02/24 03:30:52;;;;;;;14.53;4.00;;;9.60;1.00;;;;;;5070745;28;20290;-71
2022/02/24 03:33:19;;;;;;;10.50;3.33;;;9.60;1.00;;;;;;5070744;28;20206;-73
2022/02/24 03:35:46;;;;;;;15.53;4.33;;;9.60;1.00;;;;;;5070642;28;20233;-71
2022/02/24 03:38:12;;;;;;;15.90;4.47;;;9.60;1.00;;;;;;5069865;28;20210;-71
2022/02/24 03:40:39;;;;;;;13.03;3.90;;;9.60;1.00;;;;;;5070458;28;20206;-72
2022/02/24 03:43:06;;;;;;;12.93;4.00;;;9.60;1.00;;;;;;5069724;28;20739;-73
2022/02/24 03:45:33;;;;;;;15.63;4.23;;;9.60;1.00;;;;;;5070633;28;20279;-73
2022/02/24 03:48:02;;;;;;;15.87;4.13;;;9.60;1.00;;;;;;5070215;28;20259;-71
2022/02/24 03:50:29;;;;;;;9.43;3.27;;;9.60;1.00;;;;;;5070418;28;20241;-73
2022/02/24 03:52:56;;;;;;;13.13;4.67;;;9.70;1.00;;;;;;5069695;28;20206;-73
2022/02/24 03:55:23;;;;;;;17.57;3.77;;;9.60;1.00;;;;;;5070248;28;20233;-75
2022/02/24 03:57:50;;;;;;;30.63;7.97;;;9.60;1.00;;;;;;5070502;28;20206;-73
2022/02/24 04:00:17;;;;;;;20.57;4.77;;;9.60;1.00;;;;;;5070170;28;20716;-74
2022/02/24 04:02:44;;;;;;;17.90;6.80;;;9.60;1.00;;;;;;5070428;28;20677;-74
2022/02/24 04:05:15;;;;;;;14.03;3.97;;;9.60;1.00;;;;;;5069965;28;20209;-74
2022/02/24 04:07:42;;;;;;;12.53;4.17;;;9.60;1.00;;;;;;5070102;28;20293;-73
2022/02/24 04:10:10;;;;;;;16.17;6.10;;;9.60;1.00;;;;;;5069851;28;20199;-73
2022/02/24 04:12:43;;;;;;;13.17;3.93;;;9.60;1.00;;;;;;5074180;28;20665;-73
2022/02/24 04:15:12;;;;;;;13.57;4.30;;;9.60;1.00;;;;;;5090246;28;20268;-73
2022/02/24 04:17:39;;;;;;;19.67;4.80;;;9.60;1.00;;;;;;5107302;28;20209;-73
2022/02/24 04:20:09;;;;;;;19.07;6.17;;;9.50;1.00;;;;;;5102725;28;20209;-73
2022/02/24 04:22:38;;;;;;;20.27;5.53;;;9.50;1.00;;;;;;5109869;28;20205;-73
2022/02/24 04:25:06;;;;;;;19.37;4.70;;;9.50;1.00;;;;;;5110089;28;20266;-73
2022/02/24 04:27:35;;;;;;;18.43;5.63;;;9.50;1.00;;;;;;5110101;28;20208;-72
2022/02/24 04:30:02;;;;;;;12.40;4.40;;;9.50;1.00;;;;;;5109870;28;20209;-73
2022/02/24 04:32:29;;;;;;;14.13;4.60;;;9.50;1.00;;;;;;5105419;28;20209;-73
2022/02/24 04:34:56;;;;;;;18.57;4.03;;;9.50;1.00;;;;;;5112245;28;20224;-73
2022/02/24 04:37:23;;;;;;;15.63;5.53;;;9.50;1.00;;;;;;5113567;28;20250;-73
2022/02/24 04:39:52;;;;;;;21.77;5.37;;;9.40;1.00;;;;;;5114384;28;20261;-72
2022/02/24 04:42:20;;;;;;;17.00;5.00;;;9.40;1.00;;;;;;5114225;28;20649;-72
2022/02/24 04:44:47;;;;;;;18.33;5.80;;;9.40;1.00;;;;;;5112772;28;20201;-72
2022/02/24 04:47:14;;;;;;;17.93;4.47;;;9.40;1.00;;;;;;5113202;28;20215;-72
2022/02/24 04:49:41;;;;;;;16.23;7.30;;;9.30;1.00;;;;;;5113675;28;20204;-72
2022/02/24 04:52:09;;;;;;;15.37;4.63;;;9.30;1.00;;;;;;5113316;28;20583;-72
2022/02/24 04:54:36;;;;;;;17.70;5.05;;;9.40;1.00;;;;;;5112991;28;20254;-72
2022/02/24 04:57:05;;;;;;;10.90;3.20;;;9.40;1.00;;;;;;5113228;28;20213;-71
2022/02/24 04:59:31;;;;;;;10.50;5.30;;;9.50;1.00;;;;;;5113527;28;20212;-72
2022/02/24 05:01:59;;;;;;;17.00;4.17;;;9.40;1.00;;;;;;5112995;28;20250;-71
2022/02/24 05:04:25;;;;;;;15.33;5.40;;;9.40;1.00;;;;;;5112802;28;20672;-72
2022/02/24 05:06:53;;;;;;;12.40;4.47;;;9.40;1.00;;;;;;5112579;28;20212;-73
2022/02/24 05:09:19;;;;;;;20.80;5.87;;;9.30;1.00;;;;;;5108633;28;20253;-72
2022/02/24 05:11:47;;;;;;;9.33;3.60;;;9.30;1.00;;;;;;5113186;28;20258;-71
2022/02/24 05:14:15;;;;;;;24.03;5.00;;;9.30;1.00;;;;;;5110305;28;20217;-70
2022/02/24 05:16:42;;;;;;;14.63;3.90;;;9.30;1.00;;;;;;5113154;28;20775;-72
2022/02/24 05:19:09;;;;;;;23.57;4.27;;;9.30;1.00;;;;;;5112647;27;20205;-73
2022/02/24 05:21:36;;;;;;;12.43;3.83;;;9.20;1.00;;;;;;5113527;27;20205;-72
2022/02/24 05:24:04;;;;;;;8.93;3.90;;;9.20;1.00;;;;;;5112455;28;20261;-73
2022/02/24 05:26:31;;;;;;;18.80;4.20;;;9.20;1.00;;;;;;5113325;28;20251;-72
2022/02/24 05:28:58;;;;;;;14.97;4.07;;;9.20;1.00;;;;;;5112740;28;20197;-72
2022/02/24 05:31:26;;;;;;;15.40;5.50;;;9.10;1.00;;;;;;5112775;28;20246;-72
2022/02/24 05:33:53;;;;;;;10.23;4.20;;;9.10;1.00;;;;;;5112877;28;20201;-72
2022/02/24 05:36:20;;;;;;;13.23;3.67;;;9.10;1.00;;;;;;5113466;28;20232;-74
2022/02/24 05:38:47;;;;;;;11.77;3.50;;;9.10;1.00;;;;;;5113523;28;20196;-73
2022/02/24 05:41:14;;;;;;;15.37;3.50;;;9.10;1.00;;;;;;5112698;27;20201;-73
2022/02/24 05:43:41;;;;;;;21.50;6.40;;;9.20;1.00;;;;;;5112833;28;20205;-73
2022/02/24 05:46:08;;;;;;;16.33;4.60;;;9.20;1.00;;;;;;5111942;28;20617;-73
2022/02/24 05:48:36;;;;;;;8.43;3.40;;;9.20;1.00;;;;;;5112554;28;20200;-73
2022/02/24 05:51:04;;;;;;;10.63;4.47;;;9.20;1.00;;;;;;5112620;28;20277;-73
2022/02/24 05:53:31;;;;;;;12.33;4.30;;;9.20;1.00;;;;;;5112490;28;20663;-73
2022/02/24 05:55:58;;;;;;;12.40;3.90;;;9.20;1.00;;;;;;5112283;28;20229;-73
2022/02/24 05:58:25;;;;;;;11.43;3.30;;;9.10;1.00;;;;;;5112707;28;20254;-73
2022/02/24 06:00:52;;;;;;;12.50;5.47;;;9.10;1.00;;;;;;5112834;28;20205;-73
2022/02/24 06:03:19;;;;;;;20.87;4.67;;;9.10;1.00;;;;;;5112502;28;20688;-73
2022/02/24 06:05:47;;;;;;;12.93;3.77;;;9.00;1.00;;;;;;5112444;28;20231;-73
2022/02/24 06:08:14;;;;;;;12.13;4.80;;;9.10;1.00;;;;;;5112164;28;20205;-73
2022/02/24 06:10:41;;;;;;;15.60;6.13;;;9.10;1.00;;;;;;5112323;28;20200;-73
2022/02/24 06:13:08;;;;;;;15.97;4.00;;;9.00;1.00;;;;;;5111939;28;20205;-73
2022/02/24 06:15:35;;;;;;;10.20;4.67;;;9.00;1.00;;;;;;5112184;28;20228;-73
2022/02/24 06:18:07;;;;;;;9.10;4.30;;;8.90;1.00;;;;;;5111774;28;20249;-73
2022/02/24 06:20:34;;;;;;;17.07;5.23;;;8.90;1.00;;;;;;5112214;28;20201;-73
2022/02/24 06:23:02;;;;;;;12.17;4.57;;;8.90;1.00;;;;;;5111911;28;20201;-73
2022/02/24 06:25:29;;;;;;;12.47;3.97;;;9.10;1.00;;;;;;5112071;28;20204;-73
2022/02/24 06:27:58;;;;;;;10.47;4.03;;;9.00;1.00;;;;;;5111741;28;20212;-73
2022/02/24 06:30:26;;;;;;;12.90;5.10;;;9.00;1.00;;;;;;5112082;28;20208;-74
2022/02/24 06:32:53;;;;;;;12.30;4.30;;;9.00;1.00;;;;;;5111966;28;20216;-72
2022/02/24 06:35:20;;;;;;;12.57;4.20;;;9.00;1.00;;;;;;5112181;28;20204;-73
2022/02/24 06:37:47;;;;;;;13.37;5.73;;;9.00;1.00;;;;;;5111997;27;20204;-72
2022/02/24 06:40:16;;;;;;;8.30;4.10;;;9.10;1.00;;;;;;5111370;28;20212;-74
2022/02/24 06:42:43;;;;;;;8.77;5.40;;;9.10;1.00;;;;;;5111590;28;20671;-75
2022/02/24 06:45:10;;;;;;;11.10;4.33;;;9.10;1.00;;;;;;5111482;28;20209;-74
2022/02/24 06:47:37;;;;;;;22.40;4.80;;;9.10;1.00;;;;;;5111626;28;20205;-74
2022/02/24 06:50:05;;;;;;;11.23;4.27;;;9.10;1.00;;;;;;5111350;28;20201;-74
2022/02/24 06:52:32;;;;;;;9.60;4.50;;;9.00;1.00;;;;;;5111591;27;20246;-75
2022/02/24 06:55:00;;;;;;;18.37;4.23;;;9.10;1.00;;;;;;5111106;28;20247;-75
2022/02/24 06:57:28;;;;;;;17.33;5.73;;;9.10;1.00;;;;;;5110967;28;20236;-75
2022/02/24 06:59:55;;;;;;;10.60;3.73;;;9.20;1.00;;;;;;5111223;28;20736;-75
2022/02/24 07:02:22;;;;;;;18.03;5.40;;;9.10;1.00;;;;;;5111612;28;20201;-73
2022/02/24 07:04:49;;;;;;;9.33;4.07;;;9.20;1.00;;;;;;5111986;28;20250;-76
2022/02/24 07:07:16;;;;;;;12.57;4.33;;;9.20;1.00;;;;;;5110977;28;20196;-75
2022/02/24 07:09:43;;;;;;;15.00;4.80;;;9.20;1.00;;;;;;5111555;28;20826;-75
2022/02/24 07:12:11;;;;;;;8.70;4.53;;;9.30;1.00;;;;;;5111140;28;20262;-75
2022/02/24 07:14:39;;;;;;;7.60;4.13;;;9.30;1.00;;;;;;5111538;28;20200;-75
2022/02/24 07:17:06;;;;;;;14.07;3.80;;;9.30;1.00;;;;;;5110706;28;20232;-73
2022/02/24 07:19:33;;;;;;;15.30;4.53;;;9.40;1.00;;;;;;5111226;28;20723;-73
2022/02/24 07:22:00;;;;;;;9.57;3.80;;;9.40;1.00;;;;;;5110925;28;20629;-73
2022/02/24 07:24:27;;;;;;;15.53;5.67;;;9.40;1.00;;;;;;5111239;28;20590;-73
2022/02/24 07:26:54;;;;;;;16.57;4.03;;;9.40;1.00;;;;;;5111044;28;20254;-73
2022/02/24 07:29:21;;;;;;;12.37;3.57;;;9.40;1.00;;;;;;5111688;28;20258;-75
2022/02/24 07:31:50;;;;;;;17.53;4.97;;;9.50;1.00;;;;;;5111484;28;20197;-74
2022/02/24 07:34:17;;;;;;;15.10;4.60;;;9.60;1.00;;;;;;5110641;28;20261;-73
2022/02/24 07:36:44;;;;;;;11.67;4.23;;;9.70;1.00;;;;;;5090887;28;20241;-73
2022/02/24 07:39:12;;;;;;;18.00;4.57;;;9.70;1.00;;;;;;5080301;28;20247;-73
2022/02/24 07:41:39;;;;;;;16.20;7.00;;;9.70;1.00;;;;;;5090687;28;20579;-73
2022/02/24 07:44:07;;;;;;;13.07;5.07;;;9.80;1.00;;;;;;5089873;28;20213;-73
2022/02/24 07:46:34;;;;;;;13.23;4.03;;;9.90;1.00;;;;;;5090764;28;20201;-72
2022/02/24 07:49:03;;;;;;;13.17;3.93;;;10.20;1.00;;;;;;5089892;28;20213;-73
2022/02/24 07:51:30;;;;;;;13.97;4.73;;;10.30;1.00;;;;;;5090909;28;20278;-73
2022/02/24 07:53:57;;;;;;;12.80;5.17;;;10.40;1.00;;;;;;5090030;28;20665;-74
2022/02/24 07:56:24;;;;;;;9.87;3.47;;;10.30;1.00;;;;;;5090446;28;20276;-73
2022/02/24 07:58:51;;;;;;;13.63;4.00;;;10.30;1.00;;;;;;5090654;28;20255;-74
2022/02/24 08:01:22;;;;;;;7.93;3.70;;;10.40;1.00;;;;;;5090491;28;20201;-72
2022/02/24 08:03:49;;;;;;;10.47;3.83;;;11.10;1.00;;;;;;5090875;28;20652;-74
2022/02/24 08:06:18;;;;;;;8.13;3.40;;;11.40;1.00;;;;;;5090826;28;20205;-73
2022/02/24 08:08:46;;;;;;;12.67;3.03;;;11.30;1.00;;;;;;5109948;28;20205;-72
2022/02/24 08:11:13;;;;;;;7.47;3.20;;;11.50;1.00;;;;;;5107053;28;20229;-74
2022/02/24 08:13:40;;;;;;;8.53;3.63;;;11.90;1.00;;;;;;5104530;28;20258;-74
2022/02/24 08:16:07;;;;;;;15.33;4.10;;;11.80;1.00;;;;;;5093247;28;20274;-74
2022/02/24 08:18:34;;;;;;;12.73;4.23;;;11.90;1.00;;;;;;5093736;28;20206;-72
2022/02/24 08:21:01;;;;;;;9.97;3.90;;;12.00;1.00;;;;;;5093591;28;20618;-76
2022/02/24 08:23:30;;;;;;;11.20;3.13;;;12.40;1.00;;;;;;5093731;28;20275;-78
2022/02/24 08:25:57;;;;;;;9.67;5.63;;;12.20;1.00;;;;;;5092276;28;20247;-78
2022/02/24 08:28:24;;;;;;;10.20;3.60;;;12.20;1.00;;;;;;5094122;28;20209;-79
2022/02/24 08:30:51;;;;;;;9.70;3.23;;;12.30;1.00;;;;;;5094400;28;20243;-79
2022/02/24 08:33:18;;;;;;;10.77;4.05;;;12.50;1.00;;;;;;5094550;28;20258;-78
2022/02/24 08:35:45;;;;;;;9.63;3.73;;;12.30;1.00;;;;;;5104447;28;20209;-80
2022/02/24 08:38:12;;;;;;;11.17;3.20;;;11.70;1.00;;;;;;5103582;28;20254;-79
2022/02/24 08:40:41;;;;;;;10.60;4.50;;;12.00;1.00;;;;;;5094058;28;20202;-75
2022/02/24 08:43:07;;;;;;;6.33;3.50;;;12.50;1.00;;;;;;5100342;28;20270;-81
2022/02/24 08:45:36;;;;;;;7.83;3.10;;;12.80;1.00;;;;;;5100363;28;20219;-73
2022/02/24 08:48:04;;;;;;;8.75;3.28;;;12.80;1.00;;;;;;5094007;28;20241;-81
2022/02/24 08:50:31;;;;;;;6.17;2.80;;;13.20;1.00;;;;;;5093257;28;20729;-75
2022/02/24 08:52:59;;;;;;;10.98;3.60;;;13.80;1.00;;;;;;5104004;28;20213;-75
2022/02/24 08:55:27;;;;;;;7.75;2.88;;;13.30;1.00;;;;;;5102039;28;20618;-80
2022/02/24 08:57:55;;;;;;;9.95;3.95;;;12.90;1.00;;;;;;5092698;28;20237;-74
2022/02/24 09:00:22;;;;;;;10.25;3.45;;;12.90;1.00;;;;;;5092858;28;20206;-71
2022/02/24 09:02:49;;;;;;;9.43;3.42;;;13.10;1.00;;;;;;5092844;28;20210;-77
2022/02/24 09:05:16;;;;;;;7.05;3.03;;;13.30;1.00;;;;;;5092906;28;20267;-73
2022/02/24 09:07:43;;;;;;;22.88;5.22;;;12.70;1.00;;;;;;5082204;28;20217;-73
2022/02/24 09:10:11;;;;;;;12.13;3.97;;;12.70;1.00;;;;;;5095018;28;20201;-73
2022/02/24 09:12:38;;;;;;;9.40;4.18;;;12.90;1.00;;;;;;5091031;28;20210;-75
2022/02/24 09:15:07;;;;;;;8.55;3.33;;;13.50;1.00;;;;;;5090157;28;20737;-75
2022/02/24 09:17:34;;;;;;;7.28;3.15;;;13.60;1.00;;;;;;5092669;28;20244;-71
2022/02/24 09:20:02;;;;;;;7.25;3.70;;;13.60;1.00;;;;;;5102936;28;20305;-78
2022/02/24 09:22:29;;;;;;;6.18;2.65;;;13.40;1.00;;;;;;5092776;28;20205;-77
2022/02/24 09:24:56;;;;;;;13.85;4.43;;;14.30;1.00;;;;;;5092131;28;20210;-76
2022/02/24 09:27:24;;;;;;;9.82;3.78;;;14.40;1.00;;;;;;5092695;28;20205;-77
2022/02/24 09:29:51;;;;;;;9.05;3.55;;;14.20;1.00;;;;;;5093312;28;20241;-76
2022/02/24 09:32:19;;;;;;;8.52;3.47;;;14.40;1.00;;;;;;5092667;28;20279;-77
2022/02/24 09:34:46;;;;;;;10.68;5.00;;;14.70;1.00;;;;;;5092716;28;20205;-76
2022/02/24 09:37:13;;;;;;;12.75;3.33;;;15.00;1.00;;;;;;5090855;28;20276;-70
2022/02/24 09:39:40;;;;;;;9.50;3.80;;;15.40;1.00;;;;;;5098276;28;20206;-70
2022/02/24 09:42:07;;;;;;;7.68;3.95;;;15.10;1.00;;;;;;5091893;28;20209;-76
2022/02/24 09:44:34;;;;;;;9.45;3.90;;;14.90;1.00;;;;;;5092417;28;20205;-77
2022/02/24 09:47:03;;;;;;;5.18;2.85;;;15.40;1.00;;;;;;5092193;28;20201;-74
2022/02/24 09:49:34;;;;;;;14.65;4.00;;;16.20;1.00;;;;;;5105492;28;20197;-77
2022/02/24 09:52:01;;;;;;;13.90;4.30;;;17.20;1.00;;;;;;5111610;28;20201;-73
2022/02/24 09:54:28;;;;;;;7.55;4.18;;;17.90;1.00;;;;;;5099499;28;20224;-74
2022/02/24 09:56:55;;;;;;;7.80;3.13;;;17.70;1.00;;;;;;5111228;28;20233;-77
2022/02/24 09:59:22;;;;;;;9.82;3.88;;;18.80;1.00;;;;;;5093669;28;20258;-73
2022/02/24 10:01:51;;;;;;;11.57;4.55;;;18.50;1.00;;;;;;5094615;28;20673;-75
2022/02/24 10:04:20;;;;;;;8.05;3.63;;;19.40;1.00;;;;;;5100225;28;20266;-71
2022/02/24 10:06:48;;;;;;;7.25;4.18;;;18.40;1.00;;;;;;5092954;28;20698;-71
2022/02/24 10:09:21;;;;;;;9.77;5.55;;;18.10;1.00;;;;;;5091460;28;20305;-71
2022/02/24 10:11:48;;;;;;;8.57;3.65;;;17.90;1.00;;;;;;5095209;28;20235;-70
2022/02/24 10:14:20;;;;;;;9.85;4.35;;;18.00;1.00;;;;;;5097075;28;20204;-71
2022/02/24 10:16:59;;;;;;;12.00;4.03;;;17.90;1.00;;;;;;5111373;28;20251;-73
2022/02/24 10:19:28;;;;;;;11.25;3.95;;;18.30;1.00;;;;;;5110094;28;20208;-69
2022/02/24 10:22:13;;;;;;;5.88;2.78;;;19.20;1.00;;;;;;5110217;28;20227;-68
2022/02/24 10:24:42;;;;;;;7.90;3.35;;;19.30;1.00;;;;;;5105655;28;20255;-78
2022/02/24 10:27:18;;;;;;;4.47;2.60;;;19.40;1.00;;;;;;5087917;28;20213;-72
2022/02/24 10:30:03;;;;;;;4.30;2.17;;;21.20;1.00;;;;;;5095471;28;20209;-73
2022/02/24 10:32:32;;;;;;;5.05;2.22;;;22.70;1.00;;;;;;5096842;28;20200;-77
2022/02/24 10:35:19;;;;;;;4.75;2.38;;;22.60;1.00;;;;;;5097081;28;20214;-75
2022/02/24 10:37:55;;;;;;;4.60;2.00;;;21.50;1.00;;;;;;5090260;28;20585;-72
2022/02/24 10:40:23;;;;;;;4.95;2.28;;;20.60;1.00;;;;;;5087028;28;20231;-71
2022/02/24 10:42:51;;;;;;;4.47;2.78;;;18.30;1.00;;;;;;5101245;28;20247;-74
2022/02/24 10:45:18;;;;;;;2.88;1.90;;;16.90;1.00;;;;;;5098185;28;20205;-79
2022/02/24 10:47:58;;;;;;;4.05;1.77;;;16.20;1.00;;;;;;5105069;28;20613;-77
2022/02/24 10:50:55;;;;;;;2.55;1.92;;;15.70;1.00;;;;;;5090613;28;20627;-78
2022/02/24 10:53:25;;;;;;;4.13;2.72;;;15.50;1.00;;;;;;5098147;28;20213;-75
2022/02/24 10:56:01;;;;;;;8.18;3.80;;;15.20;1.00;;;;;;5110697;28;20262;-72
2022/02/24 10:58:30;;;;;;;8.88;4.00;;;14.90;1.00;;;;;;5094347;28;20704;-76
2022/02/24 11:01:18;;;;;;;6.45;4.00;;;14.80;1.00;;;;;;5105096;28;20686;-77
2022/02/24 11:03:47;;;;;;;8.07;5.07;;;14.50;1.00;;;;;;5097488;28;20692;-76
2022/02/24 11:06:15;;;;;;;10.35;6.25;;;14.30;1.00;;;;;;5107692;28;20208;-75
2022/02/24 11:08:45;;;;;;;10.70;6.78;;;14.20;1.00;;;;;;5110556;28;20216;-72
2022/02/24 11:11:20;;;;;;;12.68;6.10;;;14.40;1.00;;;;;;5110368;28;20688;-73
2022/02/24 11:13:48;;;;;;;13.82;7.60;;;14.50;1.00;;;;;;5102307;28;20257;-72
2022/02/24 11:16:16;;;;;;;11.60;8.00;;;14.60;1.00;;;;;;5094146;28;20208;-74
2022/02/24 11:18:44;;;;;;;12.73;6.90;;;14.20;1.00;;;;;;5106536;28;20236;-77
2022/02/24 11:21:13;;;;;;;15.90;7.78;;;14.40;1.00;;;;;;5099977;28;20669;-73
2022/02/24 11:23:41;;;;;;;12.15;6.00;;;14.50;1.00;;;;;;5100771;28;20213;-70
2022/02/24 11:26:30;;;;;;;14.02;7.03;;;14.40;1.00;;;;;;5087464;28;20202;-71
2022/02/24 11:29:05;;;;;;;10.95;7.63;;;14.20;1.00;;;;;;5107762;28;20220;-78
2022/02/24 11:31:43;;;;;;;14.40;7.18;;;14.00;1.00;;;;;;5107163;28;20224;-76
2022/02/24 11:34:11;;;;;;;16.02;7.50;;;13.90;1.00;;;;;;5110331;28;20593;-79
2022/02/24 11:36:42;;;;;;;19.73;7.43;;;13.80;1.00;;;;;;5088639;28;20296;-78
2022/02/24 11:39:12;;;;;;;15.18;7.43;;;13.90;1.00;;;;;;5093574;28;20276;-78
2022/02/24 11:41:57;;;;;;;13.38;7.32;;;14.00;1.00;;;;;;5108909;28;20698;-73
2022/02/24 11:44:35;;;;;;;15.77;7.07;;;14.10;1.00;;;;;;5113934;28;20739;-74
2022/02/24 11:47:05;;;;;;;12.95;8.20;;;14.20;1.00;;;;;;5104950;28;20266;-76
2022/02/24 11:50:17;;;;;;;13.30;7.13;;;14.00;1.00;;;;;;5094564;28;20262;-78
2022/02/24 11:52:50;;;;;;;15.18;6.78;;;14.30;1.00;;;;;;5094399;28;20201;-74
2022/02/24 11:55:43;;;;;;;15.30;6.88;;;14.50;1.00;;;;;;5080425;28;20241;-77
2022/02/24 11:58:43;;;;;;;17.85;7.05;;;14.60;1.00;;;;;;5094367;28;20293;-77
2022/02/24 12:01:18;;;;;;;14.18;6.60;;;14.90;1.00;;;;;;5093604;28;20243;-77
2022/02/24 12:03:57;;;;;;;13.32;6.05;;;15.30;1.00;;;;;;5094324;28;20664;-73
2022/02/24 12:06:44;;;;;;;13.32;6.93;;;15.20;1.00;;;;;;5094358;28;20259;-77
2022/02/24 12:09:16;;;;;;;14.80;7.22;;;15.20;1.00;;;;;;5094063;28;20208;-73
2022/02/24 12:11:45;;;;;;;15.02;8.38;;;15.10;1.00;;;;;;5094707;28;20201;-74
2022/02/24 12:14:52;;;;;;;12.10;7.40;;;15.20;1.00;;;;;;5094112;28;20198;-72
2022/02/24 12:17:28;;;;;;;15.07;6.70;;;15.20;1.00;;;;;;5104064;28;20253;-74
2022/02/24 12:19:58;;;;;;;15.57;7.35;;;15.00;1.00;;;;;;5095034;28;20204;-71
2022/02/24 12:22:37;;;;;;;14.15;6.88;;;15.10;1.00;;;;;;5093348;28;20240;-72
2022/02/24 12:25:13;;;;;;;30.38;8.63;;;15.00;1.00;;;;;;5103885;28;20204;-70
2022/02/24 12:27:42;;;;;;;23.67;9.63;;;15.40;1.00;;;;;;5108985;27;20212;-75
2022/02/24 12:30:27;;;;;;;17.83;7.85;;;15.40;1.00;;;;;;5103968;28;20692;-74
2022/02/24 12:33:04;;;;;;;11.40;7.03;;;15.40;1.00;;;;;;5105580;28;20222;-71
2022/02/24 12:35:33;;;;;;;18.67;7.97;;;15.20;1.00;;;;;;5113402;28;20579;-74
2022/02/24 12:38:01;;;;;;;15.43;7.95;;;15.40;1.00;;;;;;5111187;27;20623;-73
2022/02/24 12:40:31;;;;;;;14.98;7.15;;;15.80;1.00;;;;;;5073228;28;20202;-71
2022/02/24 12:43:00;;;;;;;18.58;7.05;;;15.60;1.00;;;;;;5087530;28;20198;-71
2022/02/24 12:45:28;;;;;;;10.32;5.95;;;15.60;1.00;;;;;;5093727;28;20201;-71
2022/02/24 12:47:57;;;;;;;14.20;5.22;;;15.60;1.00;;;;;;5101613;28;20262;-72
2022/02/24 12:50:30;;;;;;;14.73;5.93;;;15.30;1.00;;;;;;5113525;28;20250;-71
2022/02/24 12:53:05;;;;;;;9.48;4.97;;;15.30;1.00;;;;;;5104237;28;20216;-73
2022/02/24 12:55:32;;;;;;;13.32;4.85;;;15.30;1.00;;;;;;5101359;27;20292;-75
2022/02/24 12:58:00;;;;;;;15.93;5.45;;;15.60;1.00;;;;;;5103586;28;20644;-71
2022/02/24 13:00:32;;;;;;;18.05;5.90;;;16.10;1.00;;;;;;5108562;28;20197;-73
2022/02/24 13:03:01;;;;;;;11.95;5.70;;;16.60;1.00;;;;;;5112895;28;20261;-71
2022/02/24 13:05:31;;;;;;;13.90;5.00;;;16.50;1.00;;;;;;5108292;28;20205;-72
2022/02/24 13:10:56;;;;;;;10.35;4.15;;;16.80;1.00;;;;;;5095717;28;20257;-78